sensor_id;sensor_type;location;lat;lon;timestamp;pressure;altitude;pressure_sealevel;temperature;humidity
24486;BME280;13449;49.374;8.584;2022-08-19T00:01:59;100096.78;;;21.41;73.48
24486;BME280;13449;49.374;8.584;2022-08-19T00:04:31;100112.91;;;21.44;71.23
24486;BME280;13449;49.374;8.584;2022-08-19T00:06:59;100097.94;;;21.45;73.01
24486;BME280;13449;49.374;8.584;2022-08-19T00:09:33;100081.28;;;21.45;72.96
24486;BME280;13449;49.374;8.584;2022-08-19T00:12:00;100091.28;;;21.46;72.49
24486;BME280;13449;49.374;8.584;2022-08-19T00:14:27;100087.66;;;21.46;72.79
24486;BME280;13449;49.374;8.584;2022-08-19T00:16:54;100076.84;;;21.44;73.31
24486;BME280;13449;49.374;8.584;2022-08-19T00:19:22;100079.63;;;21.44;74.52
24486;BME280;13449;49.374;8.584;2022-08-19T00:21:49;100082.06;;;21.41;73.42
24486;BME280;13449;49.374;8.584;2022-08-19T00:24:16;100084.03;;;21.40;74.67
24486;BME280;13449;49.374;8.584;2022-08-19T00:26:45;100087.59;;;21.36;75.29
24486;BME280;13449;49.374;8.584;2022-08-19T00:29:15;100090.63;;;21.34;74.96
24486;BME280;13449;49.374;8.584;2022-08-19T00:31:45;100085.09;;;21.34;74.76
24486;BME280;13449;49.374;8.584;2022-08-19T00:34:14;100092.84;;;21.32;74.29
24486;BME280;13449;49.374;8.584;2022-08-19T00:36:42;100094.19;;;21.30;74.96
24486;BME280;13449;49.374;8.584;2022-08-19T00:39:09;100077.56;;;21.30;75.17
24486;BME280;13449;49.374;8.584;2022-08-19T00:41:35;100074.47;;;21.26;75.63
24486;BME280;13449;49.374;8.584;2022-08-19T00:46:37;100070.34;;;21.29;74.22
24486;BME280;13449;49.374;8.584;2022-08-19T00:49:17;100075.91;;;21.29;73.41
24486;BME280;13449;49.374;8.584;2022-08-19T00:51:51;100081.44;;;21.29;74.79
24486;BME280;13449;49.374;8.584;2022-08-19T00:54:20;100076.16;;;21.27;74.44
24486;BME280;13449;49.374;8.584;2022-08-19T00:56:58;100080.56;;;21.23;75.24
24486;BME280;13449;49.374;8.584;2022-08-19T00:59:27;100077.50;;;21.19;76.17
24486;BME280;13449;49.374;8.584;2022-08-19T01:02:23;100082.19;;;21.19;76.39
24486;BME280;13449;49.374;8.584;2022-08-19T01:04:49;100075.50;;;21.15;75.62
24486;BME280;13449;49.374;8.584;2022-08-19T01:07:26;100068.31;;;21.14;75.58
24486;BME280;13449;49.374;8.584;2022-08-19T01:09:53;100061.09;;;21.13;75.13
24486;BME280;13449;49.374;8.584;2022-08-19T01:12:22;100060.84;;;21.14;75.64
24486;BME280;13449;49.374;8.584;2022-08-19T01:14:49;100066.63;;;21.13;75.77
24486;BME280;13449;49.374;8.584;2022-08-19T01:17:17;100069.91;;;21.10;76.05
24486;BME280;13449;49.374;8.584;2022-08-19T01:19:46;100073.53;;;21.10;75.44
24486;BME280;13449;49.374;8.584;2022-08-19T01:24:58;100092.94;;;21.10;75.53
24486;BME280;13449;49.374;8.584;2022-08-19T01:27:25;100089.06;;;21.11;75.37
24486;BME280;13449;49.374;8.584;2022-08-19T01:29:57;100087.63;;;21.09;75.89
24486;BME280;13449;49.374;8.584;2022-08-19T01:32:23;100080.41;;;21.08;76.19
24486;BME280;13449;49.374;8.584;2022-08-19T01:35:00;100082.94;;;21.09;74.81
24486;BME280;13449;49.374;8.584;2022-08-19T01:37:28;100082.69;;;21.11;74.83
24486;BME280;13449;49.374;8.584;2022-08-19T01:39:55;100081.84;;;21.10;73.92
24486;BME280;13449;49.374;8.584;2022-08-19T01:42:23;100087.97;;;21.12;73.91
24486;BME280;13449;49.374;8.584;2022-08-19T01:44:56;100069.66;;;21.11;75.78
24486;BME280;13449;49.374;8.584;2022-08-19T01:47:23;100073.00;;;21.13;74.63
24486;BME280;13449;49.374;8.584;2022-08-19T01:49:49;100070.25;;;21.13;73.96
24486;BME280;13449;49.374;8.584;2022-08-19T01:52:16;100067.47;;;21.13;74.40
24486;BME280;13449;49.374;8.584;2022-08-19T01:54:42;100076.03;;;21.12;75.20
24486;BME280;13449;49.374;8.584;2022-08-19T01:57:11;100078.75;;;21.07;76.23
24486;BME280;13449;49.374;8.584;2022-08-19T01:59:40;100085.66;;;21.04;75.82
24486;BME280;13449;49.374;8.584;2022-08-19T02:02:17;100088.97;;;21.01;76.55
24486;BME280;13449;49.374;8.584;2022-08-19T02:04:43;100093.09;;;20.99;76.44
24486;BME280;13449;49.374;8.584;2022-08-19T02:07:20;100094.44;;;20.96;76.82
24486;BME280;13449;49.374;8.584;2022-08-19T02:09:52;100092.78;;;20.95;77.32
24486;BME280;13449;49.374;8.584;2022-08-19T02:12:22;100100.53;;;20.93;77.57
24486;BME280;13449;49.374;8.584;2022-08-19T02:14:49;100096.03;;;20.87;78.06
24486;BME280;13449;49.374;8.584;2022-08-19T02:17:17;100097.72;;;20.88;78.01
24486;BME280;13449;49.374;8.584;2022-08-19T02:19:44;100098.75;;;20.82;78.14
24486;BME280;13449;49.374;8.584;2022-08-19T02:22:11;100102.63;;;20.81;78.13
24486;BME280;13449;49.374;8.584;2022-08-19T02:24:37;100103.69;;;20.75;78.77
24486;BME280;13449;49.374;8.584;2022-08-19T02:27:10;100113.91;;;20.74;78.63
24486;BME280;13449;49.374;8.584;2022-08-19T02:29:37;100112.56;;;20.77;78.34
24486;BME280;13449;49.374;8.584;2022-08-19T02:32:04;100106.44;;;20.75;79.02
24486;BME280;13449;49.374;8.584;2022-08-19T02:34:31;100108.38;;;20.74;78.80
24486;BME280;13449;49.374;8.584;2022-08-19T02:36:58;100096.44;;;20.74;78.04
24486;BME280;13449;49.374;8.584;2022-08-19T02:39:29;100092.34;;;20.77;77.10
24486;BME280;13449;49.374;8.584;2022-08-19T02:42:02;100095.13;;;20.77;78.16
24486;BME280;13449;49.374;8.584;2022-08-19T02:44:28;100098.44;;;20.79;76.69
24486;BME280;13449;49.374;8.584;2022-08-19T02:46:57;100092.38;;;20.82;77.06
24486;BME280;13449;49.374;8.584;2022-08-19T02:49:26;100098.75;;;20.82;76.88
24486;BME280;13449;49.374;8.584;2022-08-19T02:52:00;100091.03;;;20.84;76.63
24486;BME280;13449;49.374;8.584;2022-08-19T02:54:33;100094.91;;;20.83;77.38
24486;BME280;13449;49.374;8.584;2022-08-19T02:56:59;100096.50;;;20.79;77.08
24486;BME280;13449;49.374;8.584;2022-08-19T02:59:29;100089.34;;;20.83;76.23
24486;BME280;13449;49.374;8.584;2022-08-19T03:01:56;100081.88;;;20.84;76.75
24486;BME280;13449;49.374;8.584;2022-08-19T03:04:22;100081.88;;;20.84;76.24
24486;BME280;13449;49.374;8.584;2022-08-19T03:06:52;100076.59;;;20.82;77.16
24486;BME280;13449;49.374;8.584;2022-08-19T03:09:26;100073.81;;;20.82;76.60
24486;BME280;13449;49.374;8.584;2022-08-19T03:11:55;100077.13;;;20.79;76.77
24486;BME280;13449;49.374;8.584;2022-08-19T03:14:22;100075.44;;;20.78;77.18
24486;BME280;13449;49.374;8.584;2022-08-19T03:16:51;100077.13;;;20.79;76.21
24486;BME280;13449;49.374;8.584;2022-08-19T03:19:19;100085.97;;;20.76;77.37
24486;BME280;13449;49.374;8.584;2022-08-19T03:21:47;100083.44;;;20.74;76.82
24486;BME280;13449;49.374;8.584;2022-08-19T03:24:15;100087.88;;;20.76;77.04
24486;BME280;13449;49.374;8.584;2022-08-19T03:26:51;100083.13;;;20.71;77.15
24486;BME280;13449;49.374;8.584;2022-08-19T03:29:29;100096.16;;;20.70;75.83
24486;BME280;13449;49.374;8.584;2022-08-19T03:31:59;100083.13;;;20.71;77.37
24486;BME280;13449;49.374;8.584;2022-08-19T03:34:32;100094.16;;;20.66;77.77
24486;BME280;13449;49.374;8.584;2022-08-19T03:37:07;100099.69;;;20.66;76.70
24486;BME280;13449;49.374;8.584;2022-08-19T03:39:37;100104.16;;;20.67;77.71
24486;BME280;13449;49.374;8.584;2022-08-19T03:42:04;100102.44;;;20.61;78.39
24486;BME280;13449;49.374;8.584;2022-08-19T03:44:51;100105.97;;;20.56;78.58
24486;BME280;13449;49.374;8.584;2022-08-19T03:47:25;100110.69;;;20.56;79.29
24486;BME280;13449;49.374;8.584;2022-08-19T03:49:51;100121.44;;;20.52;79.44
24486;BME280;13449;49.374;8.584;2022-08-19T03:52:18;100121.13;;;20.49;79.60
24486;BME280;13449;49.374;8.584;2022-08-19T03:54:53;100115.59;;;20.49;79.79
24486;BME280;13449;49.374;8.584;2022-08-19T03:57:21;100123.34;;;20.47;79.50
24486;BME280;13449;49.374;8.584;2022-08-19T03:59:58;100109.50;;;20.47;79.47
24486;BME280;13449;49.374;8.584;2022-08-19T04:02:39;100110.56;;;20.46;79.02
24486;BME280;13449;49.374;8.584;2022-08-19T04:05:27;100106.72;;;20.47;78.75
24486;BME280;13449;49.374;8.584;2022-08-19T04:07:54;100114.19;;;20.46;79.49
24486;BME280;13449;49.374;8.584;2022-08-19T04:10:39;100106.97;;;20.45;79.80
24486;BME280;13449;49.374;8.584;2022-08-19T04:13:06;100113.06;;;20.47;77.81
24486;BME280;13449;49.374;8.584;2022-08-19T04:15:41;100110.03;;;20.49;78.66
24486;BME280;13449;49.374;8.584;2022-08-19T04:18:10;100113.91;;;20.48;75.83
24486;BME280;13449;49.374;8.584;2022-08-19T04:20:47;100102.31;;;20.51;78.55
24486;BME280;13449;49.374;8.584;2022-08-19T04:23:17;100095.13;;;20.50;78.71
24486;BME280;13449;49.374;8.584;2022-08-19T04:25:51;100101.75;;;20.49;76.45
24486;BME280;13449;49.374;8.584;2022-08-19T04:28:17;100108.38;;;20.48;78.97
24486;BME280;13449;49.374;8.584;2022-08-19T04:30:49;100103.63;;;20.43;79.30
24486;BME280;13449;49.374;8.584;2022-08-19T04:33:18;100116.03;;;20.41;79.50
24486;BME280;13449;49.374;8.584;2022-08-19T04:35:56;100113.66;;;20.27;80.08
24486;BME280;13449;49.374;8.584;2022-08-19T04:38:24;100106.97;;;20.23;80.35
24486;BME280;13449;49.374;8.584;2022-08-19T04:40:51;100099.94;;;20.16;80.60
24486;BME280;13449;49.374;8.584;2022-08-19T04:43:38;100107.47;;;20.20;78.42
24486;BME280;13449;49.374;8.584;2022-08-19T04:46:07;100099.75;;;20.22;78.26
24486;BME280;13449;49.374;8.584;2022-08-19T04:48:53;100111.91;;;20.21;78.41
24486;BME280;13449;49.374;8.584;2022-08-19T04:51:41;100116.59;;;20.21;78.12
24486;BME280;13449;49.374;8.584;2022-08-19T04:54:10;100111.97;;;20.26;78.09
24486;BME280;13449;49.374;8.584;2022-08-19T04:56:40;100114.75;;;20.26;78.12
24486;BME280;13449;49.374;8.584;2022-08-19T04:59:09;100120.63;;;20.30;77.94
24486;BME280;13449;49.374;8.584;2022-08-19T05:01:43;100123.72;;;20.34;75.82
24486;BME280;13449;49.374;8.584;2022-08-19T05:04:09;100118.25;;;20.39;76.95
24486;BME280;13449;49.374;8.584;2022-08-19T05:06:37;100114.38;;;20.40;76.94
24486;BME280;13449;49.374;8.584;2022-08-19T05:09:05;100109.41;;;20.42;76.92
24486;BME280;13449;49.374;8.584;2022-08-19T05:11:38;100130.22;;;20.44;76.41
24486;BME280;13449;49.374;8.584;2022-08-19T05:14:07;100129.69;;;20.47;76.05
24486;BME280;13449;49.374;8.584;2022-08-19T05:16:41;100138.31;;;20.51;76.56
24486;BME280;13449;49.374;8.584;2022-08-19T05:19:07;100136.69;;;20.55;77.40
24486;BME280;13449;49.374;8.584;2022-08-19T05:21:53;100136.69;;;20.55;78.67
24486;BME280;13449;49.374;8.584;2022-08-19T05:24:38;100132.84;;;20.56;76.31
24486;BME280;13449;49.374;8.584;2022-08-19T05:27:27;100129.06;;;20.62;77.09
24486;BME280;13449;49.374;8.584;2022-08-19T05:29:54;100142.06;;;20.61;75.90
24486;BME280;13449;49.374;8.584;2022-08-19T05:32:34;100135.72;;;20.66;76.72
24486;BME280;13449;49.374;8.584;2022-08-19T05:35:00;100150.41;;;20.66;75.50
24486;BME280;13449;49.374;8.584;2022-08-19T05:37:27;100159.03;;;20.70;77.08
24486;BME280;13449;49.374;8.584;2022-08-19T05:39:54;100158.22;;;20.69;77.40
24486;BME280;13449;49.374;8.584;2022-08-19T05:42:21;100162.94;;;20.69;75.21
24486;BME280;13449;49.374;8.584;2022-08-19T05:44:49;100154.41;;;20.76;78.76
24486;BME280;13449;49.374;8.584;2022-08-19T05:47:19;100168.50;;;20.74;76.26
24486;BME280;13449;49.374;8.584;2022-08-19T05:49:48;100176.56;;;20.76;76.00
24486;BME280;13449;49.374;8.584;2022-08-19T05:52:17;100175.22;;;20.78;76.58
24486;BME280;13449;49.374;8.584;2022-08-19T05:54:46;100180.22;;;20.81;75.37
24486;BME280;13449;49.374;8.584;2022-08-19T05:57:17;100182.50;;;20.84;76.19
24486;BME280;13449;49.374;8.584;2022-08-19T05:59:47;100193.91;;;20.88;75.16
24486;BME280;13449;49.374;8.584;2022-08-19T06:02:23;100194.22;;;20.91;76.27
24486;BME280;13449;49.374;8.584;2022-08-19T06:04:50;100202.56;;;20.96;76.81
24486;BME280;13449;49.374;8.584;2022-08-19T06:07:24;100208.09;;;20.96;75.78
24486;BME280;13449;49.374;8.584;2022-08-19T06:09:50;100209.25;;;21.00;74.64
24486;BME280;13449;49.374;8.584;2022-08-19T06:12:34;100207.41;;;21.06;76.29
24486;BME280;13449;49.374;8.584;2022-08-19T06:15:08;100214.34;;;21.08;76.39
24486;BME280;13449;49.374;8.584;2022-08-19T06:17:37;100212.16;;;21.10;76.14
24486;BME280;13449;49.374;8.584;2022-08-19T06:20:06;100218.31;;;21.12;76.37
24486;BME280;13449;49.374;8.584;2022-08-19T06:22:42;100204.50;;;21.17;76.22
24486;BME280;13449;49.374;8.584;2022-08-19T06:25:10;100207.84;;;21.19;76.55
24486;BME280;13449;49.374;8.584;2022-08-19T06:27:40;100219.53;;;21.22;75.02
24486;BME280;13449;49.374;8.584;2022-08-19T06:30:26;100226.22;;;21.26;75.27
24486;BME280;13449;49.374;8.584;2022-08-19T06:32:54;100220.13;;;21.29;75.10
24486;BME280;13449;49.374;8.584;2022-08-19T06:35:20;100221.28;;;21.33;75.59
24486;BME280;13449;49.374;8.584;2022-08-19T06:37:47;100217.97;;;21.36;74.77
24486;BME280;13449;49.374;8.584;2022-08-19T06:40:23;100225.25;;;21.42;73.10
24486;BME280;13449;49.374;8.584;2022-08-19T06:42:53;100226.38;;;21.46;72.85
24486;BME280;13449;49.374;8.584;2022-08-19T06:45:23;100232.56;;;21.53;72.81
24486;BME280;13449;49.374;8.584;2022-08-19T06:48:01;100236.53;;;21.62;73.16
24486;BME280;13449;49.374;8.584;2022-08-19T06:50:36;100240.47;;;21.66;72.16
24486;BME280;13449;49.374;8.584;2022-08-19T06:53:08;100241.63;;;21.75;72.28
24486;BME280;13449;49.374;8.584;2022-08-19T06:55:35;100248.31;;;21.79;71.52
24486;BME280;13449;49.374;8.584;2022-08-19T06:58:02;100256.16;;;21.87;71.80
24486;BME280;13449;49.374;8.584;2022-08-19T07:00:29;100252.63;;;21.92;70.91
24486;BME280;13449;49.374;8.584;2022-08-19T07:03:01;100246.00;;;21.98;70.95
24486;BME280;13449;49.374;8.584;2022-08-19T07:05:40;100244.94;;;22.04;70.60
24486;BME280;13449;49.374;8.584;2022-08-19T07:08:19;100237.75;;;22.08;70.44
24486;BME280;13449;49.374;8.584;2022-08-19T07:11:00;100238.06;;;22.11;69.84
24486;BME280;13449;49.374;8.584;2022-08-19T07:13:37;100242.53;;;22.17;70.03
24486;BME280;13449;49.374;8.584;2022-08-19T07:16:05;100248.44;;;22.26;69.60
24486;BME280;13449;49.374;8.584;2022-08-19T07:18:35;100240.94;;;22.32;69.74
24486;BME280;13449;49.374;8.584;2022-08-19T07:21:15;100244.31;;;22.34;68.85
24486;BME280;13449;49.374;8.584;2022-08-19T07:23:43;100241.28;;;22.40;68.71
24486;BME280;13449;49.374;8.584;2022-08-19T07:26:17;100240.19;;;22.46;68.54
24486;BME280;13449;49.374;8.584;2022-08-19T07:28:54;100236.06;;;22.54;68.91
24486;BME280;13449;49.374;8.584;2022-08-19T07:31:23;100239.69;;;22.54;69.07
24486;BME280;13449;49.374;8.584;2022-08-19T07:33:56;100235.25;;;22.58;68.54
24486;BME280;13449;49.374;8.584;2022-08-19T07:36:27;100241.09;;;22.62;67.99
24486;BME280;13449;49.374;8.584;2022-08-19T07:39:00;100237.78;;;22.65;67.94
24486;BME280;13449;49.374;8.584;2022-08-19T07:41:28;100240.56;;;22.65;67.65
24486;BME280;13449;49.374;8.584;2022-08-19T07:43:59;100244.47;;;22.64;67.62
24486;BME280;13449;49.374;8.584;2022-08-19T07:46:31;100237.78;;;22.65;67.69
24486;BME280;13449;49.374;8.584;2022-08-19T07:49:00;100249.19;;;22.63;67.03
24486;BME280;13449;49.374;8.584;2022-08-19T07:51:27;100237.78;;;22.65;67.95
24486;BME280;13449;49.374;8.584;2022-08-19T07:54:03;100240.06;;;22.68;68.13
24486;BME280;13449;49.374;8.584;2022-08-19T07:56:32;100243.94;;;22.72;67.40
24486;BME280;13449;49.374;8.584;2022-08-19T07:59:02;100244.00;;;22.82;68.24
24486;BME280;13449;49.374;8.584;2022-08-19T08:01:29;100244.28;;;22.81;66.77
24486;BME280;13449;49.374;8.584;2022-08-19T08:03:56;100249.00;;;22.80;66.88
24486;BME280;13449;49.374;8.584;2022-08-19T08:06:52;100245.13;;;22.81;66.67
24486;BME280;13449;49.374;8.584;2022-08-19T08:09:41;100243.19;;;22.87;66.35
24486;BME280;13449;49.374;8.584;2022-08-19T08:12:19;100235.13;;;22.95;66.86
24486;BME280;13449;49.374;8.584;2022-08-19T08:15:04;100242.41;;;23.06;66.23
24486;BME280;13449;49.374;8.584;2022-08-19T08:17:43;100257.16;;;23.17;65.28
24486;BME280;13449;49.374;8.584;2022-08-19T08:20:19;100248.59;;;23.34;65.70
24486;BME280;13449;49.374;8.584;2022-08-19T08:22:55;100241.97;;;23.55;65.67
24486;BME280;13449;49.374;8.584;2022-08-19T08:25:40;100263.97;;;23.72;64.38
24486;BME280;13449;49.374;8.584;2022-08-19T08:28:15;100261.19;;;23.82;63.27
24486;BME280;13449;49.374;8.584;2022-08-19T08:30:43;100262.03;;;23.87;62.99
24486;BME280;13449;49.374;8.584;2022-08-19T08:33:13;100242.50;;;23.92;63.54
24486;BME280;13449;49.374;8.584;2022-08-19T08:35:44;100254.22;;;24.15;62.71
24486;BME280;13449;49.374;8.584;2022-08-19T08:38:18;100248.13;;;24.18;62.47
24486;BME280;13449;49.374;8.584;2022-08-19T08:40:48;100248.63;;;24.30;62.42
24486;BME280;13449;49.374;8.584;2022-08-19T08:43:26;100260.31;;;24.42;61.75
24486;BME280;13449;49.374;8.584;2022-08-19T08:46:07;100268.94;;;24.50;60.80
24486;BME280;13449;49.374;8.584;2022-08-19T08:51:42;100279.72;;;24.77;59.32
24486;BME280;13449;49.374;8.584;2022-08-19T08:54:31;100274.72;;;24.84;58.74
24486;BME280;13449;49.374;8.584;2022-08-19T08:57:04;100267.63;;;25.07;59.02
24486;BME280;13449;49.374;8.584;2022-08-19T08:59:39;100301.44;;;24.95;56.68
24486;BME280;13449;49.374;8.584;2022-08-19T09:02:08;100298.41;;;24.92;57.47
24486;BME280;13449;49.374;8.584;2022-08-19T09:04:42;100283.81;;;25.05;57.52
24486;BME280;13449;49.374;8.584;2022-08-19T09:07:50;100276.25;;;25.16;57.63
24486;BME280;13449;49.374;8.584;2022-08-19T09:10:46;100294.06;;;25.20;57.31
24486;BME280;13449;49.374;8.584;2022-08-19T09:13:42;100278.63;;;25.37;57.81
24486;BME280;13449;49.374;8.584;2022-08-19T09:16:19;100298.97;;;25.43;55.59
24486;BME280;13449;49.374;8.584;2022-08-19T09:18:56;100267.84;;;25.65;57.98
24486;BME280;13449;49.374;8.584;2022-08-19T09:21:25;100285.16;;;25.67;56.05
24486;BME280;13449;49.374;8.584;2022-08-19T09:23:59;100306.56;;;25.81;55.09
24486;BME280;13449;49.374;8.584;2022-08-19T09:26:26;100307.72;;;25.75;53.82
24486;BME280;13449;49.374;8.584;2022-08-19T09:29:17;100309.47;;;25.66;54.49
24486;BME280;13449;49.374;8.584;2022-08-19T09:31:47;100303.50;;;25.78;54.51
24486;BME280;13449;49.374;8.584;2022-08-19T09:34:16;100296.09;;;25.97;54.43
24486;BME280;13449;49.374;8.584;2022-08-19T09:36:46;100302.59;;;26.21;53.72
24486;BME280;13449;49.374;8.584;2022-08-19T09:39:12;100298.66;;;26.27;54.01
24486;BME280;13449;49.374;8.584;2022-08-19T09:41:41;100308.19;;;26.21;53.00
24486;BME280;13449;49.374;8.584;2022-08-19T09:44:14;100308.50;;;26.20;52.42
24486;BME280;13449;49.374;8.584;2022-08-19T09:46:43;100306.28;;;26.17;53.18
24486;BME280;13449;49.374;8.584;2022-08-19T09:49:09;100303.47;;;26.17;52.80
24486;BME280;13449;49.374;8.584;2022-08-19T09:51:38;100337.09;;;26.07;51.49
24486;BME280;13449;49.374;8.584;2022-08-19T09:54:17;100335.94;;;26.13;51.16
24486;BME280;13449;49.374;8.584;2022-08-19T09:56:49;100341.06;;;26.01;50.98
24486;BME280;13449;49.374;8.584;2022-08-19T09:59:22;100310.34;;;26.29;52.21
24486;BME280;13449;49.374;8.584;2022-08-19T10:01:49;100321.16;;;26.41;50.67
24486;BME280;13449;49.374;8.584;2022-08-19T10:04:17;100325.66;;;26.37;50.40
24486;BME280;13449;49.374;8.584;2022-08-19T10:06:48;100331.91;;;26.58;50.16
24486;BME280;13449;49.374;8.584;2022-08-19T10:09:21;100322.09;;;26.60;51.51
24486;BME280;13449;49.374;8.584;2022-08-19T10:12:01;100339.38;;;26.62;49.92
24486;BME280;13449;49.374;8.584;2022-08-19T10:14:31;100345.22;;;26.66;50.08
24486;BME280;13449;49.374;8.584;2022-08-19T10:17:07;100322.56;;;26.67;50.51
24486;BME280;13449;49.374;8.584;2022-08-19T10:19:46;100341.78;;;26.74;49.38
24486;BME280;13449;49.374;8.584;2022-08-19T10:22:21;100360.00;;;26.71;48.22
24486;BME280;13449;49.374;8.584;2022-08-19T10:24:50;100320.72;;;26.81;50.46
24486;BME280;13449;49.374;8.584;2022-08-19T10:27:32;100334.88;;;26.66;50.53
24486;BME280;13449;49.374;8.584;2022-08-19T10:30:01;100338.91;;;26.55;49.78
24486;BME280;13449;49.374;8.584;2022-08-19T10:32:38;100328.88;;;26.54;49.86
24486;BME280;13449;49.374;8.584;2022-08-19T10:35:12;100313.75;;;26.79;50.57
24486;BME280;13449;49.374;8.584;2022-08-19T10:37:47;100310.81;;;26.94;51.01
24486;BME280;13449;49.374;8.584;2022-08-19T10:40:22;100326.63;;;27.04;49.25
24486;BME280;13449;49.374;8.584;2022-08-19T10:42:51;100318.41;;;27.12;50.03
24486;BME280;13449;49.374;8.584;2022-08-19T10:45:17;100318.72;;;26.87;49.28
24486;BME280;13449;49.374;8.584;2022-08-19T10:47:46;100331.66;;;26.78;48.90
24486;BME280;13449;49.374;8.584;2022-08-19T10:50:13;100332.75;;;26.82;49.12
24486;BME280;13449;49.374;8.584;2022-08-19T10:53:04;100337.97;;;27.17;48.28
24486;BME280;13449;49.374;8.584;2022-08-19T10:55:37;100336.22;;;27.21;48.60
24486;BME280;13449;49.374;8.584;2022-08-19T10:58:22;100323.22;;;27.30;48.24
24486;BME280;13449;49.374;8.584;2022-08-19T11:00:54;100313.22;;;27.48;48.76
24486;BME280;13449;49.374;8.584;2022-08-19T11:03:22;100314.91;;;27.44;48.40
24486;BME280;13449;49.374;8.584;2022-08-19T11:06:04;100312.00;;;27.73;47.16
24486;BME280;13449;49.374;8.584;2022-08-19T11:08:38;100284.94;;;27.63;49.61
24486;BME280;13449;49.374;8.584;2022-08-19T11:11:18;100296.31;;;27.53;48.08
24486;BME280;13449;49.374;8.584;2022-08-19T11:14:31;100278.78;;;27.24;48.59
24486;BME280;13449;49.374;8.584;2022-08-19T11:17:00;100261.59;;;27.12;49.86
24486;BME280;13449;49.374;8.584;2022-08-19T11:19:34;100237.59;;;27.43;50.15
24486;BME280;13449;49.374;8.584;2022-08-19T11:22:08;100235.88;;;27.66;49.72
24486;BME280;13449;49.374;8.584;2022-08-19T11:24:46;100270.31;;;27.85;47.54
24486;BME280;13449;49.374;8.584;2022-08-19T11:27:12;100276.00;;;27.80;46.96
24486;BME280;13449;49.374;8.584;2022-08-19T11:29:50;100293.59;;;27.67;46.90
24486;BME280;13449;49.374;8.584;2022-08-19T11:32:24;100293.44;;;27.77;46.98
24486;BME280;13449;49.374;8.584;2022-08-19T11:34:57;100284.34;;;27.85;47.41
24486;BME280;13449;49.374;8.584;2022-08-19T11:37:24;100306.59;;;27.95;47.05
24486;BME280;13449;49.374;8.584;2022-08-19T11:39:50;100306.69;;;27.71;46.62
24486;BME280;13449;49.374;8.584;2022-08-19T11:42:20;100287.66;;;27.87;47.67
24486;BME280;13449;49.374;8.584;2022-08-19T11:45:05;100290.66;;;27.91;46.73
24486;BME280;13449;49.374;8.584;2022-08-19T11:47:33;100303.56;;;27.92;46.85
24486;BME280;13449;49.374;8.584;2022-08-19T11:50:00;100301.06;;;27.90;46.00
24486;BME280;13449;49.374;8.584;2022-08-19T11:52:26;100297.97;;;27.73;46.15
24486;BME280;13449;49.374;8.584;2022-08-19T11:54:53;100300.72;;;27.59;45.64
24486;BME280;13449;49.374;8.584;2022-08-19T11:57:19;100283.91;;;27.59;46.36
24486;BME280;13449;49.374;8.584;2022-08-19T11:59:51;100308.28;;;27.77;44.29
24486;BME280;13449;49.374;8.584;2022-08-19T12:02:18;100306.22;;;27.64;46.07
24486;BME280;13449;49.374;8.584;2022-08-19T12:04:45;100304.56;;;27.63;45.19
24486;BME280;13449;49.374;8.584;2022-08-19T12:07:15;100316.53;;;27.88;44.52
24486;BME280;13449;49.374;8.584;2022-08-19T12:09:48;100322.97;;;27.88;43.49
24486;BME280;13449;49.374;8.584;2022-08-19T12:12:15;100326.22;;;27.76;44.22
24486;BME280;13449;49.374;8.584;2022-08-19T12:14:44;100341.59;;;27.60;42.86
24486;BME280;13449;49.374;8.584;2022-08-19T12:17:11;100323.44;;;27.58;45.36
24486;BME280;13449;49.374;8.584;2022-08-19T12:19:42;100318.81;;;27.85;44.61
24486;BME280;13449;49.374;8.584;2022-08-19T12:22:14;100279.19;;;28.24;45.99
24486;BME280;13449;49.374;8.584;2022-08-19T12:24:41;100335.25;;;28.11;43.09
24486;BME280;13449;49.374;8.584;2022-08-19T12:27:07;100329.84;;;27.96;43.63
24486;BME280;13449;49.374;8.584;2022-08-19T12:29:38;100322.81;;;27.79;44.91
24486;BME280;13449;49.374;8.584;2022-08-19T12:32:07;100339.63;;;27.61;44.54
24486;BME280;13449;49.374;8.584;2022-08-19T12:34:37;100330.03;;;27.48;44.44
24486;BME280;13449;49.374;8.584;2022-08-19T12:37:12;100325.53;;;27.47;44.70
24486;BME280;13449;49.374;8.584;2022-08-19T12:39:43;100345.50;;;27.41;43.11
24486;BME280;13449;49.374;8.584;2022-08-19T12:42:18;100334.66;;;27.34;44.91
24486;BME280;13449;49.374;8.584;2022-08-19T12:44:44;100344.78;;;27.54;43.61
24486;BME280;13449;49.374;8.584;2022-08-19T12:47:21;100337.22;;;27.54;43.29
24486;BME280;13449;49.374;8.584;2022-08-19T12:49:48;100330.09;;;27.38;44.31
24486;BME280;13449;49.374;8.584;2022-08-19T12:52:22;100345.00;;;27.33;42.90
24486;BME280;13449;49.374;8.584;2022-08-19T12:54:50;100354.81;;;27.36;42.03
24486;BME280;13449;49.374;8.584;2022-08-19T12:57:24;100360.84;;;27.48;42.68
24486;BME280;13449;49.374;8.584;2022-08-19T12:59:57;100355.59;;;27.60;42.22
24486;BME280;13449;49.374;8.584;2022-08-19T13:02:24;100356.38;;;27.84;43.27
24486;BME280;13449;49.374;8.584;2022-08-19T13:04:55;100345.38;;;28.07;43.01
24486;BME280;13449;49.374;8.584;2022-08-19T13:07:32;100386.78;;;28.47;40.08
24486;BME280;13449;49.374;8.584;2022-08-19T13:09:59;100389.00;;;28.31;41.32
24486;BME280;13449;49.374;8.584;2022-08-19T13:12:34;100424.28;;;28.38;39.51
24486;BME280;13449;49.374;8.584;2022-08-19T13:15:05;100428.03;;;28.47;39.33
24486;BME280;13449;49.374;8.584;2022-08-19T13:17:37;100456.94;;;28.47;38.72
24486;BME280;13449;49.374;8.584;2022-08-19T13:20:06;100435.25;;;28.53;38.00
24486;BME280;13449;49.374;8.584;2022-08-19T13:22:35;100429.66;;;28.66;39.15
24486;BME280;13449;49.374;8.584;2022-08-19T13:25:04;100436.31;;;28.57;38.46